Terminal Aerodrome Forecast
Issued by NWS Wilmington, OH

Current Version | Previous Version | Text Only | Print | Product List | Glossary Off
Versions: 1 2 3 4 5 6 7 8 9 10 11 12 13 14 15 16 17 18 19 20 21 22

529
FTUS41 KILN 231040 AAC
TAFILN
TAF AMD
KILN 231040Z 2311/2406 00000KT 1/4SM FG SCT250
     FM231300 23005KT P6SM FEW040 SCT250
     FM240100 00000KT P6SM SCT250=

USA.gov is the U.S. government's official web portal to all federal, state and local government web resources and services.